WAT9335 KPDX-KJFK
Flight info
| Callsign | WAT9335 |
|---|---|
| Flight time | 4h 42m |
| Altitude | 33000 |
| Route | LAVAA7 PDT MLS KP06A GEP DLL/N0456F350 HASTE DAFLU J70 JHW Q476 WLKES PUCKY1 |
| Aircraft | B738/M-SDE2E3FGHIRWXY/LB1 |
Departure
| Time | 2026-05-08 08:37 |
|---|---|
| Airport | Portland International Airport (KPDX) |
Arrival
| Time | 2026-05-08 13:19 |
|---|---|
| Airport | John F. Kennedy International Airport (KJFK) |
| Time | Latitude | Longitude | Altitude | Speed | Heading |
|---|---|---|---|---|---|
| 2026-05-08 07:56 | 45.58983 | -122.59738 | 31 ft | 0 kts | 209° |
| 2026-05-08 08:26 | 45.58986 | -122.59736 | 31 ft | 3 kts | 208° |
| 2026-05-08 08:26 | 45.59010 | -122.59718 | 28 ft | 4 kts | 215° |
| 2026-05-08 08:26 | 45.59028 | -122.59692 | 29 ft | 4 kts | 247° |
| 2026-05-08 08:26 | 45.59031 | -122.59658 | 29 ft | 4 kts | 294° |
| 2026-05-08 08:27 | 45.59026 | -122.59646 | 29 ft | 1 kts | 300° |
| 2026-05-08 08:30 | 45.59028 | -122.59649 | 29 ft | 1 kts | 298° |
| 2026-05-08 08:30 | 45.59049 | -122.59709 | 29 ft | 6 kts | 297° |
| 2026-05-08 08:31 | 45.59072 | -122.59768 | 29 ft | 8 kts | 300° |
| 2026-05-08 08:31 | 45.59077 | -122.59779 | 29 ft | 0 kts | 300° |
| 2026-05-08 08:32 | 45.59080 | -122.59787 | 29 ft | 3 kts | 300° |
| 2026-05-08 08:32 | 45.59104 | -122.59833 | 29 ft | 9 kts | 315° |
| 2026-05-08 08:33 | 45.59185 | -122.59852 | 26 ft | 15 kts | 12° |
| 2026-05-08 08:33 | 45.59283 | -122.59793 | 27 ft | 15 kts | 25° |
| 2026-05-08 08:33 | 45.59371 | -122.59829 | 28 ft | 14 kts | 304° |
| 2026-05-08 08:33 | 45.59420 | -122.59950 | 29 ft | 14 kts | 298° |
| 2026-05-08 08:34 | 45.59466 | -122.60066 | 30 ft | 13 kts | 306° |
| 2026-05-08 08:34 | 45.59545 | -122.60071 | 32 ft | 7 kts | 30° |
| 2026-05-08 08:34 | 45.59556 | -122.60061 | 31 ft | 0 kts | 32° |
| 2026-05-08 08:35 | 45.59559 | -122.60059 | 32 ft | 3 kts | 31° |
| 2026-05-08 08:36 | 45.59609 | -122.60008 | 32 ft | 13 kts | 50° |
| 2026-05-08 08:36 | 45.59613 | -122.59903 | 30 ft | 0 kts | 116° |
| 2026-05-08 08:36 | 45.59527 | -122.59673 | 31 ft | 60 kts | 119° |
| 2026-05-08 08:37 | 45.59217 | -122.58874 | 35 ft | 122 kts | 118° |
| 2026-05-08 08:37 | 45.58717 | -122.57582 | 44 ft | 173 kts | 118° |
| 2026-05-08 08:37 | 45.58116 | -122.56033 | 603 ft | 176 kts | 118° |
| 2026-05-08 08:37 | 45.57533 | -122.54481 | 1347 ft | 178 kts | 117° |
| 2026-05-08 08:38 | 45.57184 | -122.52774 | 1957 ft | 188 kts | 96° |
| 2026-05-08 08:38 | 45.57046 | -122.50783 | 2190 ft | 213 kts | 97° |
| 2026-05-08 08:38 | 45.56878 | -122.48580 | 2387 ft | 232 kts | 97° |
| 2026-05-08 08:38 | 45.56649 | -122.46254 | 2776 ft | 241 kts | 104° |
| 2026-05-08 08:39 | 45.56229 | -122.43927 | 3291 ft | 244 kts | 107° |
| 2026-05-08 08:39 | 45.55932 | -122.42374 | 3609 ft | 247 kts | 107° |
| 2026-05-08 08:39 | 45.55473 | -122.39949 | 3949 ft | 262 kts | 107° |
| 2026-05-08 08:39 | 45.54994 | -122.37377 | 4391 ft | 273 kts | 107° |
| 2026-05-08 08:40 | 45.54541 | -122.34725 | 5122 ft | 278 kts | 99° |
| 2026-05-08 08:40 | 45.54749 | -122.31972 | 5709 ft | 287 kts | 65° |
| 2026-05-08 08:40 | 45.55883 | -122.29642 | 6389 ft | 288 kts | 45° |
| 2026-05-08 08:40 | 45.57266 | -122.27551 | 6872 ft | 291 kts | 43° |
| 2026-05-08 08:41 | 45.58671 | -122.25462 | 6964 ft | 292 kts | 44° |
| 2026-05-08 08:41 | 45.60074 | -122.23355 | 6989 ft | 294 kts | 44° |
| 2026-05-08 08:41 | 45.61473 | -122.21230 | 6991 ft | 293 kts | 44° |
| 2026-05-08 08:41 | 45.62862 | -122.19103 | 6984 ft | 293 kts | 44° |
| 2026-05-08 08:42 | 45.64254 | -122.16970 | 7029 ft | 295 kts | 45° |
| 2026-05-08 08:42 | 45.65440 | -122.14553 | 7540 ft | 302 kts | 63° |
| 2026-05-08 08:42 | 45.66308 | -122.11816 | 8322 ft | 302 kts | 64° |
| 2026-05-08 08:42 | 45.67165 | -122.09061 | 9018 ft | 306 kts | 64° |
| 2026-05-08 08:43 | 45.68041 | -122.06268 | 9689 ft | 309 kts | 64° |
| 2026-05-08 08:43 | 45.68938 | -122.03441 | 10271 ft | 316 kts | 63° |
| 2026-05-08 08:43 | 45.69879 | -122.00497 | 10447 ft | 336 kts | 63° |
| 2026-05-08 08:43 | 45.70883 | -121.97365 | 10603 ft | 357 kts | 64° |
| 2026-05-08 08:44 | 45.71947 | -121.94055 | 10759 ft | 376 kts | 64° |
| 2026-05-08 08:44 | 45.73062 | -121.90579 | 10979 ft | 391 kts | 64° |
| 2026-05-08 08:44 | 45.74192 | -121.86992 | 11454 ft | 398 kts | 67° |
| 2026-05-08 08:44 | 45.74769 | -121.83118 | 12042 ft | 401 kts | 89° |
| 2026-05-08 08:45 | 45.74718 | -121.79127 | 12694 ft | 402 kts | 91° |
| 2026-05-08 08:45 | 45.74665 | -121.75111 | 13279 ft | 405 kts | 91° |
| 2026-05-08 08:45 | 45.74620 | -121.71059 | 13822 ft | 409 kts | 91° |
| 2026-05-08 08:45 | 45.74585 | -121.67031 | 14323 ft | 412 kts | 91° |
| 2026-05-08 08:46 | 45.74556 | -121.62910 | 14779 ft | 415 kts | 91° |
| 2026-05-08 08:46 | 45.74528 | -121.58755 | 15229 ft | 419 kts | 91° |
| 2026-05-08 08:46 | 45.74501 | -121.54565 | 15708 ft | 422 kts | 91° |
| 2026-05-08 08:46 | 45.74473 | -121.50354 | 16184 ft | 425 kts | 91° |
| 2026-05-08 08:47 | 45.74444 | -121.46113 | 16656 ft | 428 kts | 91° |
| 2026-05-08 08:47 | 45.74413 | -121.41839 | 17120 ft | 431 kts | 91° |
| 2026-05-08 08:47 | 45.74379 | -121.37536 | 17572 ft | 434 kts | 91° |
| 2026-05-08 08:47 | 45.74344 | -121.33208 | 18057 ft | 436 kts | 91° |
| 2026-05-08 08:48 | 45.74307 | -121.28838 | 18420 ft | 441 kts | 90° |
| 2026-05-08 08:48 | 45.74268 | -121.24424 | 18786 ft | 445 kts | 90° |
| 2026-05-08 08:48 | 45.74226 | -121.19980 | 19138 ft | 448 kts | 90° |
| 2026-05-08 08:48 | 45.74183 | -121.15505 | 19509 ft | 451 kts | 90° |
| 2026-05-08 08:49 | 45.74137 | -121.10992 | 19877 ft | 454 kts | 90° |
| 2026-05-08 08:49 | 45.74090 | -121.06451 | 20210 ft | 458 kts | 90° |
| 2026-05-08 08:49 | 45.74040 | -121.01880 | 20559 ft | 461 kts | 91° |
| 2026-05-08 08:49 | 45.73988 | -120.97269 | 20880 ft | 465 kts | 91° |
| 2026-05-08 08:50 | 45.73934 | -120.92686 | 21206 ft | 468 kts | 91° |
| 2026-05-08 08:50 | 45.73877 | -120.88015 | 21549 ft | 471 kts | 91° |
| 2026-05-08 08:50 | 45.73819 | -120.83313 | 21903 ft | 474 kts | 91° |
| 2026-05-08 08:50 | 45.73757 | -120.78587 | 22266 ft | 476 kts | 91° |
| 2026-05-08 08:51 | 45.73694 | -120.73827 | 22562 ft | 480 kts | 91° |
| 2026-05-08 08:51 | 45.73628 | -120.69032 | 22849 ft | 483 kts | 91° |
| 2026-05-08 08:51 | 45.73560 | -120.64214 | 23168 ft | 486 kts | 91° |
| 2026-05-08 08:51 | 45.73489 | -120.59370 | 23481 ft | 489 kts | 91° |
| 2026-05-08 08:52 | 45.73415 | -120.54488 | 23713 ft | 492 kts | 91° |
| 2026-05-08 08:52 | 45.73339 | -120.49586 | 23997 ft | 493 kts | 91° |
| 2026-05-08 08:52 | 45.73262 | -120.44677 | 24343 ft | 492 kts | 91° |
| 2026-05-08 08:52 | 45.73182 | -120.39788 | 24698 ft | 492 kts | 91° |
| 2026-05-08 08:53 | 45.73100 | -120.34874 | 24970 ft | 494 kts | 91° |
| 2026-05-08 08:53 | 45.73016 | -120.29946 | 25200 ft | 497 kts | 91° |
| 2026-05-08 08:53 | 45.72928 | -120.24992 | 25446 ft | 499 kts | 91° |
| 2026-05-08 08:53 | 45.72839 | -120.20027 | 25712 ft | 500 kts | 91° |
| 2026-05-08 08:54 | 45.72747 | -120.15049 | 25991 ft | 501 kts | 91° |
| 2026-05-08 08:54 | 45.72652 | -120.10056 | 26239 ft | 503 kts | 91° |
| 2026-05-08 08:54 | 45.72556 | -120.05050 | 26471 ft | 505 kts | 91° |
| 2026-05-08 08:54 | 45.72456 | -120.00010 | 26608 ft | 509 kts | 91° |
| 2026-05-08 08:55 | 45.72354 | -119.94931 | 26774 ft | 512 kts | 91° |
| 2026-05-08 08:55 | 45.72248 | -119.89838 | 27002 ft | 513 kts | 91° |
| 2026-05-08 08:55 | 45.72140 | -119.84728 | 27254 ft | 514 kts | 91° |
| 2026-05-08 08:55 | 45.72030 | -119.79619 | 27568 ft | 513 kts | 91° |
| 2026-05-08 08:56 | 45.71918 | -119.74531 | 27920 ft | 511 kts | 91° |
| 2026-05-08 08:56 | 45.71804 | -119.69461 | 28329 ft | 508 kts | 91° |
| 2026-05-08 08:56 | 45.71688 | -119.64413 | 28706 ft | 506 kts | 91° |
| 2026-05-08 08:56 | 45.71571 | -119.59383 | 28998 ft | 507 kts | 91° |
| 2026-05-08 08:57 | 45.71451 | -119.54335 | 29274 ft | 507 kts | 91° |
| 2026-05-08 08:57 | 45.71329 | -119.49292 | 29593 ft | 507 kts | 91° |
| 2026-05-08 08:57 | 45.71205 | -119.44265 | 29975 ft | 505 kts | 90° |
| 2026-05-08 08:57 | 45.71081 | -119.39321 | 30312 ft | 503 kts | 90° |
| 2026-05-08 08:58 | 45.70953 | -119.34325 | 30598 ft | 502 kts | 91° |
| 2026-05-08 08:58 | 45.70824 | -119.29333 | 30844 ft | 502 kts | 91° |
| 2026-05-08 08:58 | 45.70692 | -119.24336 | 31096 ft | 502 kts | 91° |
| 2026-05-08 08:58 | 45.70558 | -119.19353 | 31378 ft | 501 kts | 91° |
| 2026-05-08 08:59 | 45.70423 | -119.14384 | 31666 ft | 500 kts | 91° |
| 2026-05-08 08:59 | 45.70285 | -119.09417 | 31924 ft | 499 kts | 91° |
| 2026-05-08 08:59 | 45.70147 | -119.04465 | 32192 ft | 499 kts | 91° |
| 2026-05-08 08:59 | 45.70006 | -118.99506 | 32467 ft | 498 kts | 90° |
| 2026-05-08 09:00 | 45.69869 | -118.94566 | 32739 ft | 496 kts | 89° |
| 2026-05-08 09:00 | 45.70017 | -118.89658 | 32941 ft | 493 kts | 80° |
| 2026-05-08 09:00 | 45.71098 | -118.79959 | 33015 ft | 494 kts | 76° |
| 2026-05-08 09:01 | 45.72328 | -118.70319 | 33014 ft | 491 kts | 77° |
| 2026-05-08 09:01 | 45.73457 | -118.60706 | 33026 ft | 488 kts | 77° |
| 2026-05-08 09:02 | 45.74501 | -118.51118 | 33062 ft | 487 kts | 78° |
| 2026-05-08 09:02 | 45.75513 | -118.41539 | 33056 ft | 486 kts | 78° |
| 2026-05-08 09:03 | 45.76518 | -118.31954 | 33053 ft | 487 kts | 78° |
| 2026-05-08 09:03 | 45.77513 | -118.22426 | 33049 ft | 488 kts | 78° |
| 2026-05-08 09:04 | 45.78511 | -118.12797 | 33044 ft | 490 kts | 78° |
| 2026-05-08 09:04 | 45.79506 | -118.03122 | 33048 ft | 491 kts | 78° |
| 2026-05-08 09:05 | 45.80495 | -117.93424 | 33059 ft | 492 kts | 78° |
| 2026-05-08 09:05 | 45.81477 | -117.83701 | 33067 ft | 493 kts | 78° |
| 2026-05-08 09:06 | 45.82453 | -117.73953 | 33078 ft | 495 kts | 78° |
| 2026-05-08 09:06 | 45.83423 | -117.64179 | 33055 ft | 495 kts | 78° |
| 2026-05-08 09:07 | 45.84378 | -117.54473 | 33063 ft | 494 kts | 78° |
| 2026-05-08 09:07 | 45.85328 | -117.44720 | 33051 ft | 493 kts | 78° |
| 2026-05-08 09:08 | 45.86268 | -117.34983 | 33071 ft | 492 kts | 78° |
| 2026-05-08 09:08 | 45.87200 | -117.25253 | 33036 ft | 492 kts | 78° |
| 2026-05-08 09:09 | 45.88123 | -117.15532 | 33016 ft | 491 kts | 78° |
| 2026-05-08 09:09 | 45.89034 | -117.05829 | 33024 ft | 490 kts | 78° |
| 2026-05-08 09:10 | 45.89936 | -116.96134 | 33042 ft | 490 kts | 78° |
| 2026-05-08 09:10 | 45.90830 | -116.86445 | 33018 ft | 489 kts | 78° |
| 2026-05-08 09:11 | 45.91713 | -116.76770 | 33023 ft | 489 kts | 78° |
| 2026-05-08 09:11 | 45.92590 | -116.67085 | 33017 ft | 489 kts | 79° |
| 2026-05-08 09:12 | 45.93458 | -116.57399 | 33034 ft | 490 kts | 78° |
| 2026-05-08 09:12 | 45.94315 | -116.47746 | 33012 ft | 491 kts | 79° |
| 2026-05-08 09:13 | 45.95170 | -116.38011 | 33002 ft | 491 kts | 79° |
| 2026-05-08 09:13 | 45.96016 | -116.28281 | 33004 ft | 490 kts | 79° |
| 2026-05-08 09:14 | 45.96854 | -116.18555 | 33091 ft | 491 kts | 78° |
| 2026-05-08 09:14 | 45.97685 | -116.08803 | 33070 ft | 491 kts | 79° |
| 2026-05-08 09:15 | 45.98509 | -115.99043 | 33063 ft | 492 kts | 79° |
| 2026-05-08 09:15 | 45.99324 | -115.89275 | 33051 ft | 492 kts | 79° |
| 2026-05-08 09:16 | 46.00132 | -115.79493 | 33037 ft | 492 kts | 79° |
| 2026-05-08 09:16 | 46.00930 | -115.69715 | 33034 ft | 492 kts | 79° |
| 2026-05-08 09:17 | 46.01715 | -115.60002 | 33021 ft | 491 kts | 79° |
| 2026-05-08 09:17 | 46.02496 | -115.50248 | 33009 ft | 491 kts | 79° |
| 2026-05-08 09:18 | 46.03267 | -115.40500 | 33017 ft | 489 kts | 79° |
| 2026-05-08 09:18 | 46.04026 | -115.30773 | 33010 ft | 489 kts | 79° |
| 2026-05-08 09:19 | 46.04781 | -115.21050 | 33026 ft | 488 kts | 79° |
| 2026-05-08 09:19 | 46.05525 | -115.11328 | 33014 ft | 489 kts | 79° |
| 2026-05-08 09:20 | 46.06259 | -115.01609 | 33005 ft | 488 kts | 79° |
| 2026-05-08 09:20 | 46.06986 | -114.91888 | 33026 ft | 488 kts | 79° |
| 2026-05-08 09:21 | 46.07705 | -114.82167 | 33003 ft | 488 kts | 79° |
| 2026-05-08 09:23 | 46.10159 | -114.48076 | 33017 ft | 494 kts | 79° |
| 2026-05-08 09:23 | 46.10848 | -114.38216 | 33003 ft | 494 kts | 79° |
| 2026-05-08 09:24 | 46.11529 | -114.28355 | 33048 ft | 495 kts | 79° |
| 2026-05-08 09:24 | 46.12203 | -114.18481 | 33060 ft | 494 kts | 79° |
| 2026-05-08 09:25 | 46.12866 | -114.08618 | 33053 ft | 494 kts | 80° |
| 2026-05-08 09:25 | 46.13522 | -113.98749 | 33058 ft | 494 kts | 80° |
| 2026-05-08 09:26 | 46.14169 | -113.88887 | 33039 ft | 494 kts | 80° |
| 2026-05-08 09:26 | 46.14808 | -113.79037 | 33035 ft | 493 kts | 80° |
| 2026-05-08 09:27 | 46.15436 | -113.69194 | 33044 ft | 493 kts | 79° |
| 2026-05-08 09:27 | 46.16055 | -113.59349 | 33022 ft | 492 kts | 79° |
| 2026-05-08 09:28 | 46.16660 | -113.49599 | 33038 ft | 491 kts | 79° |
| 2026-05-08 09:28 | 46.17262 | -113.39778 | 33040 ft | 491 kts | 80° |
| 2026-05-08 09:29 | 46.17855 | -113.29960 | 33055 ft | 491 kts | 79° |
| 2026-05-08 09:29 | 46.18346 | -113.21725 | 33043 ft | 491 kts | 79° |
| 2026-05-08 09:30 | 46.18920 | -113.11956 | 33033 ft | 491 kts | 79° |
| 2026-05-08 09:30 | 46.19489 | -113.02132 | 33033 ft | 491 kts | 79° |
| 2026-05-08 09:31 | 46.20048 | -112.92322 | 33044 ft | 490 kts | 79° |
| 2026-05-08 09:31 | 46.20601 | -112.82510 | 33040 ft | 491 kts | 79° |
| 2026-05-08 09:32 | 46.21143 | -112.72698 | 33046 ft | 490 kts | 79° |
| 2026-05-08 09:32 | 46.21681 | -112.62837 | 33256 ft | 494 kts | 79° |
| 2026-05-08 09:32 | 46.21946 | -112.57901 | 33545 ft | 492 kts | 79° |
| 2026-05-08 09:33 | 46.22207 | -112.52985 | 33856 ft | 490 kts | 79° |
| 2026-05-08 09:33 | 46.22464 | -112.48093 | 34197 ft | 488 kts | 79° |
| 2026-05-08 09:33 | 46.22720 | -112.43213 | 34387 ft | 487 kts | 79° |
| 2026-05-08 09:33 | 46.22974 | -112.38330 | 34577 ft | 487 kts | 79° |
| 2026-05-08 09:34 | 46.23226 | -112.33456 | 34782 ft | 487 kts | 79° |
| 2026-05-08 09:34 | 46.23475 | -112.28593 | 35001 ft | 485 kts | 79° |
| 2026-05-08 09:34 | 46.23719 | -112.23794 | 35033 ft | 487 kts | 79° |
| 2026-05-08 09:35 | 46.24212 | -112.14020 | 35027 ft | 487 kts | 79° |
| 2026-05-08 09:35 | 46.24689 | -112.04293 | 35055 ft | 485 kts | 78° |
| 2026-05-08 09:36 | 46.25158 | -111.94594 | 35033 ft | 483 kts | 78° |
| 2026-05-08 09:36 | 46.25618 | -111.84933 | 35044 ft | 481 kts | 78° |
| 2026-05-08 09:37 | 46.26069 | -111.75293 | 35056 ft | 481 kts | 79° |
| 2026-05-08 09:37 | 46.26513 | -111.65631 | 35085 ft | 482 kts | 78° |
| 2026-05-08 09:38 | 46.26949 | -111.55959 | 35037 ft | 483 kts | 78° |
| 2026-05-08 09:38 | 46.27375 | -111.46330 | 35038 ft | 484 kts | 78° |
| 2026-05-08 09:39 | 46.27796 | -111.36617 | 35026 ft | 485 kts | 78° |
| 2026-05-08 09:39 | 46.28209 | -111.26886 | 35037 ft | 486 kts | 79° |
| 2026-05-08 09:40 | 46.28616 | -111.17115 | 35031 ft | 487 kts | 78° |
| 2026-05-08 09:40 | 46.29014 | -111.07335 | 35032 ft | 488 kts | 78° |
| 2026-05-08 09:41 | 46.29404 | -110.97537 | 35023 ft | 488 kts | 78° |
| 2026-05-08 09:41 | 46.29787 | -110.87735 | 35031 ft | 488 kts | 78° |
| 2026-05-08 09:42 | 46.30161 | -110.77929 | 35026 ft | 488 kts | 78° |
| 2026-05-08 09:42 | 46.30526 | -110.68133 | 35031 ft | 488 kts | 78° |
| 2026-05-08 09:43 | 46.30883 | -110.58336 | 35024 ft | 487 kts | 78° |
| 2026-05-08 09:43 | 46.31232 | -110.48553 | 35025 ft | 487 kts | 78° |
| 2026-05-08 09:44 | 46.31564 | -110.38839 | 35053 ft | 487 kts | 78° |
| 2026-05-08 09:44 | 46.31897 | -110.29060 | 35029 ft | 486 kts | 78° |
| 2026-05-08 09:45 | 46.32222 | -110.19288 | 35008 ft | 486 kts | 78° |
| 2026-05-08 09:45 | 46.32536 | -110.09546 | 35026 ft | 484 kts | 78° |
| 2026-05-08 09:46 | 46.32841 | -109.99812 | 35032 ft | 484 kts | 78° |
| 2026-05-08 09:46 | 46.33138 | -109.90092 | 35022 ft | 483 kts | 78° |
| 2026-05-08 09:47 | 46.33426 | -109.80372 | 35028 ft | 483 kts | 78° |
| 2026-05-08 09:47 | 46.33706 | -109.70651 | 35029 ft | 484 kts | 78° |
| 2026-05-08 09:48 | 46.33977 | -109.60969 | 35028 ft | 485 kts | 78° |
| 2026-05-08 09:48 | 46.34242 | -109.51197 | 35027 ft | 487 kts | 78° |
| 2026-05-08 09:49 | 46.34499 | -109.41408 | 35012 ft | 487 kts | 78° |
| 2026-05-08 09:49 | 46.34747 | -109.31617 | 35013 ft | 487 kts | 78° |
| 2026-05-08 09:50 | 46.34986 | -109.21820 | 35007 ft | 487 kts | 78° |
| 2026-05-08 09:50 | 46.35219 | -109.11999 | 35007 ft | 488 kts | 78° |
| 2026-05-08 09:51 | 46.35442 | -109.02185 | 35004 ft | 488 kts | 78° |
| 2026-05-08 09:51 | 46.35657 | -108.92376 | 34986 ft | 487 kts | 78° |
| 2026-05-08 09:52 | 46.35863 | -108.82581 | 34983 ft | 486 kts | 78° |
| 2026-05-08 09:52 | 46.36059 | -108.72857 | 35020 ft | 486 kts | 78° |
| 2026-05-08 09:53 | 46.36249 | -108.63083 | 35003 ft | 485 kts | 78° |
| 2026-05-08 09:53 | 46.36430 | -108.53322 | 35003 ft | 484 kts | 78° |
| 2026-05-08 09:54 | 46.36602 | -108.43572 | 34990 ft | 484 kts | 78° |
| 2026-05-08 09:54 | 46.36766 | -108.33832 | 35045 ft | 483 kts | 78° |
| 2026-05-08 09:55 | 46.36923 | -108.24097 | 35001 ft | 483 kts | 78° |
| 2026-05-08 09:55 | 46.37070 | -108.14366 | 34989 ft | 483 kts | 78° |
| 2026-05-08 09:56 | 46.37208 | -108.04642 | 34983 ft | 483 kts | 78° |
| 2026-05-08 09:56 | 46.37338 | -107.94920 | 34993 ft | 482 kts | 78° |
| 2026-05-08 09:57 | 46.37519 | -107.80398 | 34999 ft | 483 kts | 78° |
| 2026-05-08 09:57 | 46.37629 | -107.70656 | 34988 ft | 484 kts | 78° |
| 2026-05-08 09:58 | 46.37731 | -107.60907 | 34984 ft | 484 kts | 78° |
| 2026-05-08 09:58 | 46.37824 | -107.51166 | 34980 ft | 484 kts | 78° |
| 2026-05-08 09:59 | 46.37910 | -107.41417 | 34981 ft | 484 kts | 78° |
| 2026-05-08 09:59 | 46.37987 | -107.31650 | 34973 ft | 484 kts | 78° |
| 2026-05-08 10:00 | 46.38054 | -107.21913 | 34973 ft | 483 kts | 78° |
| 2026-05-08 10:00 | 46.38114 | -107.12254 | 34971 ft | 483 kts | 78° |
| 2026-05-08 10:01 | 46.38167 | -107.02536 | 34982 ft | 483 kts | 78° |
| 2026-05-08 10:01 | 46.38212 | -106.92819 | 34969 ft | 482 kts | 78° |
| 2026-05-08 10:02 | 46.38247 | -106.83109 | 34961 ft | 482 kts | 78° |
| 2026-05-08 10:02 | 46.38275 | -106.73414 | 34953 ft | 481 kts | 79° |
| 2026-05-08 10:03 | 46.38292 | -106.63734 | 34997 ft | 481 kts | 79° |
| 2026-05-08 10:03 | 46.38304 | -106.54039 | 34960 ft | 481 kts | 80° |
| 2026-05-08 10:04 | 46.38308 | -106.44341 | 34945 ft | 481 kts | 80° |
| 2026-05-08 10:04 | 46.38303 | -106.34651 | 34940 ft | 481 kts | 80° |
| 2026-05-08 10:05 | 46.38289 | -106.24963 | 34952 ft | 481 kts | 80° |
| 2026-05-08 10:05 | 46.38269 | -106.15336 | 34946 ft | 482 kts | 81° |
| 2026-05-08 10:06 | 46.38240 | -106.05630 | 34939 ft | 482 kts | 82° |
| 2026-05-08 10:06 | 46.38203 | -105.95922 | 34936 ft | 482 kts | 82° |
| 2026-05-08 10:07 | 46.37971 | -105.86185 | 34932 ft | 485 kts | 85° |
| 2026-05-08 10:07 | 46.37531 | -105.76415 | 34931 ft | 486 kts | 85° |
| 2026-05-08 10:08 | 46.37089 | -105.66701 | 34931 ft | 486 kts | 85° |
| 2026-05-08 10:08 | 46.36671 | -105.56927 | 34920 ft | 486 kts | 85° |
| 2026-05-08 10:09 | 46.36264 | -105.47148 | 34926 ft | 487 kts | 85° |
| 2026-05-08 10:09 | 46.35853 | -105.37363 | 34953 ft | 487 kts | 86° |
| 2026-05-08 10:10 | 46.35429 | -105.27561 | 34927 ft | 488 kts | 87° |
| 2026-05-08 10:10 | 46.34992 | -105.17750 | 34915 ft | 488 kts | 87° |
| 2026-05-08 10:11 | 46.34550 | -105.07943 | 34914 ft | 488 kts | 87° |
| 2026-05-08 10:11 | 46.34100 | -104.98143 | 34912 ft | 488 kts | 87° |
| 2026-05-08 10:12 | 46.33641 | -104.88332 | 34914 ft | 489 kts | 88° |
| 2026-05-08 10:12 | 46.33173 | -104.78522 | 34910 ft | 489 kts | 88° |
| 2026-05-08 10:13 | 46.32700 | -104.68777 | 34913 ft | 489 kts | 88° |
| 2026-05-08 10:13 | 46.32215 | -104.58967 | 34905 ft | 489 kts | 88° |
| 2026-05-08 10:14 | 46.31722 | -104.49152 | 34909 ft | 490 kts | 89° |
| 2026-05-08 10:14 | 46.31220 | -104.39334 | 34914 ft | 490 kts | 89° |
| 2026-05-08 10:15 | 46.30708 | -104.29501 | 34909 ft | 490 kts | 89° |
| 2026-05-08 10:15 | 46.30189 | -104.19679 | 34909 ft | 490 kts | 89° |
| 2026-05-08 10:16 | 46.29661 | -104.09851 | 34919 ft | 490 kts | 90° |
| 2026-05-08 10:16 | 46.29124 | -104.00021 | 34890 ft | 490 kts | 90° |
| 2026-05-08 10:17 | 46.28579 | -103.90197 | 34891 ft | 490 kts | 90° |
| 2026-05-08 10:17 | 46.28030 | -103.80448 | 34885 ft | 490 kts | 90° |
| 2026-05-08 10:18 | 46.27468 | -103.70642 | 34914 ft | 489 kts | 90° |
| 2026-05-08 10:18 | 46.26899 | -103.60832 | 34883 ft | 490 kts | 90° |
| 2026-05-08 10:19 | 46.26320 | -103.51020 | 34882 ft | 490 kts | 90° |
| 2026-05-08 10:20 | 46.25437 | -103.36311 | 34881 ft | 490 kts | 90° |
| 2026-05-08 10:20 | 46.24838 | -103.26503 | 34917 ft | 490 kts | 90° |
| 2026-05-08 10:21 | 46.24333 | -103.18341 | 34902 ft | 490 kts | 90° |
| 2026-05-08 10:21 | 46.23718 | -103.08527 | 34864 ft | 491 kts | 90° |
| 2026-05-08 10:22 | 46.23093 | -102.98697 | 34879 ft | 491 kts | 90° |
| 2026-05-08 10:22 | 46.22460 | -102.88883 | 34872 ft | 490 kts | 90° |
| 2026-05-08 10:23 | 46.21819 | -102.79075 | 34877 ft | 491 kts | 90° |
| 2026-05-08 10:23 | 46.21170 | -102.69259 | 34882 ft | 491 kts | 90° |
| 2026-05-08 10:24 | 46.20515 | -102.59492 | 34879 ft | 492 kts | 91° |
| 2026-05-08 10:24 | 46.19848 | -102.49668 | 34882 ft | 492 kts | 91° |
| 2026-05-08 10:25 | 46.19171 | -102.39836 | 34889 ft | 493 kts | 91° |
| 2026-05-08 10:25 | 46.18486 | -102.29993 | 34891 ft | 493 kts | 91° |
| 2026-05-08 10:26 | 46.17791 | -102.20148 | 34887 ft | 494 kts | 91° |
| 2026-05-08 10:26 | 46.17087 | -102.10283 | 34880 ft | 494 kts | 91° |
| 2026-05-08 10:27 | 46.16373 | -102.00411 | 34924 ft | 495 kts | 91° |
| 2026-05-08 10:27 | 46.15649 | -101.90524 | 34884 ft | 496 kts | 91° |
| 2026-05-08 10:28 | 46.14916 | -101.80632 | 34881 ft | 496 kts | 91° |
| 2026-05-08 10:28 | 46.14175 | -101.70741 | 34873 ft | 496 kts | 92° |
| 2026-05-08 10:29 | 46.13430 | -101.60918 | 34878 ft | 496 kts | 92° |
| 2026-05-08 10:29 | 46.12673 | -101.51050 | 34862 ft | 495 kts | 92° |
| 2026-05-08 10:30 | 46.11908 | -101.41193 | 34872 ft | 494 kts | 92° |
| 2026-05-08 10:30 | 46.11136 | -101.31356 | 34869 ft | 494 kts | 92° |
| 2026-05-08 10:31 | 46.10356 | -101.21520 | 34869 ft | 494 kts | 92° |
| 2026-05-08 10:31 | 46.09566 | -101.11680 | 34874 ft | 494 kts | 92° |
| 2026-05-08 10:32 | 46.08768 | -101.01845 | 34865 ft | 494 kts | 92° |
| 2026-05-08 10:32 | 46.07962 | -100.92008 | 34857 ft | 494 kts | 92° |
| 2026-05-08 10:33 | 46.07147 | -100.82175 | 34857 ft | 494 kts | 92° |
| 2026-05-08 10:33 | 46.06329 | -100.72413 | 34855 ft | 495 kts | 93° |
| 2026-05-08 10:34 | 46.05497 | -100.62575 | 34852 ft | 495 kts | 93° |
| 2026-05-08 10:34 | 46.04656 | -100.52742 | 34850 ft | 495 kts | 93° |
| 2026-05-08 10:35 | 46.03806 | -100.42904 | 34847 ft | 495 kts | 93° |
| 2026-05-08 10:35 | 46.02948 | -100.33066 | 34871 ft | 496 kts | 93° |
| 2026-05-08 10:36 | 46.02080 | -100.23215 | 34854 ft | 496 kts | 94° |
| 2026-05-08 10:36 | 46.01202 | -100.13359 | 34833 ft | 497 kts | 94° |
| 2026-05-08 10:37 | 46.00318 | -100.03513 | 34842 ft | 496 kts | 94° |
| 2026-05-08 10:37 | 45.99401 | -99.93670 | 34839 ft | 497 kts | 94° |
| 2026-05-08 10:38 | 45.98416 | -99.83832 | 34850 ft | 497 kts | 95° |
| 2026-05-08 10:38 | 45.97415 | -99.73994 | 34841 ft | 497 kts | 95° |
| 2026-05-08 10:39 | 45.96422 | -99.64227 | 34843 ft | 497 kts | 95° |
| 2026-05-08 10:39 | 45.95420 | -99.54404 | 34841 ft | 496 kts | 95° |
| 2026-05-08 10:40 | 45.94411 | -99.44592 | 34860 ft | 497 kts | 95° |
| 2026-05-08 10:40 | 45.93393 | -99.34771 | 34860 ft | 497 kts | 95° |
| 2026-05-08 10:41 | 45.92366 | -99.24957 | 34858 ft | 497 kts | 95° |
| 2026-05-08 10:41 | 45.91330 | -99.15139 | 34864 ft | 497 kts | 95° |
| 2026-05-08 10:42 | 45.90285 | -99.05323 | 34873 ft | 498 kts | 96° |
| 2026-05-08 10:42 | 45.89229 | -98.95487 | 34868 ft | 498 kts | 96° |
| 2026-05-08 10:43 | 45.88167 | -98.85672 | 34865 ft | 498 kts | 96° |
| 2026-05-08 10:43 | 45.87095 | -98.75851 | 34866 ft | 498 kts | 96° |
| 2026-05-08 10:44 | 45.86015 | -98.66040 | 34881 ft | 498 kts | 96° |
| 2026-05-08 10:44 | 45.84934 | -98.56288 | 34868 ft | 498 kts | 96° |
| 2026-05-08 10:45 | 45.83836 | -98.46471 | 34857 ft | 498 kts | 97° |
| 2026-05-08 10:45 | 45.82731 | -98.36666 | 34863 ft | 498 kts | 97° |
| 2026-05-08 10:46 | 45.81615 | -98.26851 | 34884 ft | 499 kts | 97° |
| 2026-05-08 10:46 | 45.80492 | -98.17039 | 34864 ft | 499 kts | 97° |
| 2026-05-08 10:47 | 45.79358 | -98.07217 | 34844 ft | 500 kts | 97° |
| 2026-05-08 10:47 | 45.78214 | -97.97386 | 34834 ft | 500 kts | 97° |
| 2026-05-08 10:48 | 45.77063 | -97.87566 | 34828 ft | 500 kts | 97° |
| 2026-05-08 10:48 | 45.75902 | -97.77735 | 34824 ft | 501 kts | 98° |
| 2026-05-08 10:49 | 45.74739 | -97.67972 | 34828 ft | 501 kts | 98° |
| 2026-05-08 10:49 | 45.73559 | -97.58138 | 34830 ft | 501 kts | 98° |
| 2026-05-08 10:50 | 45.72370 | -97.48300 | 34837 ft | 501 kts | 98° |
| 2026-05-08 10:50 | 45.71174 | -97.38473 | 34856 ft | 501 kts | 98° |
| 2026-05-08 10:51 | 45.69968 | -97.28644 | 34856 ft | 501 kts | 98° |
| 2026-05-08 10:51 | 45.68754 | -97.18820 | 34849 ft | 502 kts | 98° |
| 2026-05-08 10:52 | 45.67529 | -97.08984 | 34840 ft | 502 kts | 98° |
| 2026-05-08 10:52 | 45.66298 | -96.99170 | 34849 ft | 502 kts | 98° |
| 2026-05-08 10:53 | 45.65057 | -96.89350 | 34848 ft | 502 kts | 98° |
| 2026-05-08 10:53 | 45.63815 | -96.79586 | 34851 ft | 502 kts | 99° |
| 2026-05-08 10:54 | 45.62557 | -96.69767 | 34849 ft | 502 kts | 99° |
| 2026-05-08 10:54 | 45.61291 | -96.59960 | 34854 ft | 502 kts | 99° |
| 2026-05-08 10:55 | 45.60016 | -96.50150 | 34852 ft | 502 kts | 99° |
| 2026-05-08 10:55 | 45.58732 | -96.40346 | 34833 ft | 503 kts | 99° |
| 2026-05-08 10:56 | 45.57439 | -96.30536 | 34834 ft | 503 kts | 99° |
| 2026-05-08 10:56 | 45.56137 | -96.20726 | 34840 ft | 503 kts | 100° |
| 2026-05-08 10:57 | 45.54823 | -96.10896 | 34822 ft | 505 kts | 100° |
| 2026-05-08 10:57 | 45.52835 | -95.96139 | 34815 ft | 506 kts | 100° |
| 2026-05-08 10:58 | 45.51504 | -95.86349 | 34817 ft | 507 kts | 100° |
| 2026-05-08 10:58 | 45.50152 | -95.76476 | 34836 ft | 507 kts | 100° |
| 2026-05-08 10:59 | 45.48792 | -95.66605 | 34850 ft | 508 kts | 101° |
| 2026-05-08 10:59 | 45.47422 | -95.56730 | 34858 ft | 508 kts | 101° |
| 2026-05-08 11:00 | 45.46044 | -95.46860 | 34845 ft | 508 kts | 101° |
| 2026-05-08 11:00 | 45.44657 | -95.36996 | 34831 ft | 508 kts | 101° |
| 2026-05-08 11:01 | 45.43262 | -95.27141 | 34845 ft | 508 kts | 101° |
| 2026-05-08 11:01 | 45.41858 | -95.17281 | 34857 ft | 508 kts | 101° |
| 2026-05-08 11:02 | 45.39742 | -95.02551 | 34869 ft | 509 kts | 102° |
| 2026-05-08 11:03 | 45.38314 | -94.92687 | 34855 ft | 509 kts | 102° |
| 2026-05-08 11:03 | 45.36877 | -94.82825 | 34842 ft | 510 kts | 102° |
| 2026-05-08 11:04 | 45.35428 | -94.72943 | 34845 ft | 510 kts | 102° |
| 2026-05-08 11:04 | 45.33972 | -94.63075 | 34874 ft | 510 kts | 102° |
| 2026-05-08 11:05 | 45.32506 | -94.53205 | 34863 ft | 510 kts | 102° |
| 2026-05-08 11:05 | 45.31030 | -94.43326 | 34861 ft | 511 kts | 102° |
| 2026-05-08 11:06 | 45.29547 | -94.33470 | 34847 ft | 511 kts | 102° |
| 2026-05-08 11:06 | 45.28066 | -94.23678 | 34865 ft | 510 kts | 102° |
| 2026-05-08 11:07 | 45.26565 | -94.13824 | 34857 ft | 511 kts | 102° |
| 2026-05-08 11:07 | 45.25055 | -94.03966 | 34850 ft | 511 kts | 103° |
| 2026-05-08 11:08 | 45.23536 | -93.94110 | 34852 ft | 511 kts | 103° |
| 2026-05-08 11:08 | 45.22007 | -93.84255 | 34857 ft | 512 kts | 103° |
| 2026-05-08 11:09 | 45.20469 | -93.74394 | 34871 ft | 512 kts | 103° |
| 2026-05-08 11:09 | 45.18923 | -93.64542 | 34858 ft | 512 kts | 103° |
| 2026-05-08 11:10 | 45.17367 | -93.54686 | 34847 ft | 512 kts | 103° |
| 2026-05-08 11:10 | 45.15806 | -93.44848 | 34851 ft | 512 kts | 103° |
| 2026-05-08 11:11 | 45.13773 | -93.35229 | 34812 ft | 509 kts | 117° |
| 2026-05-08 11:11 | 45.10288 | -93.26577 | 34842 ft | 505 kts | 124° |
| 2026-05-08 11:12 | 45.06664 | -93.18130 | 34844 ft | 506 kts | 124° |
| 2026-05-08 11:12 | 45.03038 | -93.09583 | 34846 ft | 507 kts | 123° |
| 2026-05-08 11:13 | 45.00044 | -93.02460 | 34869 ft | 507 kts | 123° |
| 2026-05-08 11:13 | 44.96445 | -92.93887 | 34861 ft | 508 kts | 123° |
| 2026-05-08 11:14 | 44.92835 | -92.85315 | 34860 ft | 507 kts | 123° |
| 2026-05-08 11:14 | 44.89219 | -92.76760 | 34870 ft | 508 kts | 123° |
| 2026-05-08 11:15 | 44.85592 | -92.68209 | 34870 ft | 508 kts | 124° |
| 2026-05-08 11:15 | 44.81955 | -92.59663 | 34875 ft | 509 kts | 124° |
| 2026-05-08 11:16 | 44.78492 | -92.51548 | 34864 ft | 509 kts | 124° |
| 2026-05-08 11:16 | 44.74870 | -92.43084 | 34866 ft | 509 kts | 124° |
| 2026-05-08 11:17 | 44.71229 | -92.34602 | 34870 ft | 509 kts | 124° |
| 2026-05-08 11:17 | 44.67591 | -92.26152 | 34874 ft | 509 kts | 124° |
| 2026-05-08 11:18 | 44.63922 | -92.17655 | 34869 ft | 509 kts | 124° |
| 2026-05-08 11:18 | 44.60249 | -92.09172 | 34877 ft | 508 kts | 124° |
| 2026-05-08 11:19 | 44.56575 | -92.00713 | 34876 ft | 507 kts | 124° |
| 2026-05-08 11:19 | 44.52895 | -91.92268 | 34881 ft | 507 kts | 124° |
| 2026-05-08 11:20 | 44.49208 | -91.83829 | 34889 ft | 507 kts | 124° |
| 2026-05-08 11:20 | 44.45541 | -91.75463 | 34885 ft | 507 kts | 124° |
| 2026-05-08 11:21 | 44.41838 | -91.67039 | 34881 ft | 508 kts | 124° |
| 2026-05-08 11:21 | 44.38132 | -91.58630 | 34890 ft | 508 kts | 124° |
| 2026-05-08 11:22 | 44.34418 | -91.50230 | 34894 ft | 508 kts | 124° |
| 2026-05-08 11:22 | 44.30692 | -91.41827 | 34889 ft | 509 kts | 125° |
| 2026-05-08 11:23 | 44.26960 | -91.33436 | 34895 ft | 509 kts | 125° |
| 2026-05-08 11:23 | 44.23216 | -91.25041 | 34893 ft | 510 kts | 125° |
| 2026-05-08 11:24 | 44.19491 | -91.16713 | 34892 ft | 510 kts | 125° |
| 2026-05-08 11:24 | 44.15732 | -91.08334 | 34904 ft | 510 kts | 125° |
| 2026-05-08 11:25 | 44.11960 | -90.99949 | 34903 ft | 511 kts | 125° |
| 2026-05-08 11:25 | 44.08180 | -90.91572 | 34898 ft | 511 kts | 125° |
| 2026-05-08 11:26 | 44.04388 | -90.83191 | 34886 ft | 512 kts | 125° |
| 2026-05-08 11:26 | 44.00594 | -90.74831 | 34881 ft | 511 kts | 125° |
| 2026-05-08 11:27 | 43.96797 | -90.66488 | 34889 ft | 511 kts | 125° |
| 2026-05-08 11:27 | 43.92995 | -90.58158 | 34890 ft | 511 kts | 126° |
| 2026-05-08 11:28 | 43.89182 | -90.49828 | 34873 ft | 511 kts | 126° |
| 2026-05-08 11:28 | 43.85394 | -90.41577 | 34866 ft | 511 kts | 126° |
| 2026-05-08 11:29 | 43.81551 | -90.33229 | 34851 ft | 510 kts | 126° |
| 2026-05-08 11:29 | 43.77732 | -90.24956 | 34865 ft | 510 kts | 126° |
| 2026-05-08 11:30 | 43.73934 | -90.16753 | 34875 ft | 509 kts | 126° |
| 2026-05-08 11:30 | 43.70109 | -90.08514 | 34890 ft | 509 kts | 126° |
| 2026-05-08 11:31 | 43.66278 | -90.00286 | 34905 ft | 509 kts | 126° |
| 2026-05-08 11:31 | 43.62441 | -89.92066 | 34886 ft | 509 kts | 126° |
| 2026-05-08 11:32 | 43.58604 | -89.83865 | 34893 ft | 508 kts | 126° |
| 2026-05-08 11:32 | 43.55094 | -89.75372 | 34893 ft | 513 kts | 114° |
| 2026-05-08 11:33 | 43.53156 | -89.65906 | 34903 ft | 514 kts | 103° |
| 2026-05-08 11:33 | 43.51609 | -89.56285 | 34901 ft | 515 kts | 103° |
| 2026-05-08 11:34 | 43.50023 | -89.46667 | 34911 ft | 515 kts | 104° |
| 2026-05-08 11:34 | 43.48385 | -89.37066 | 34916 ft | 515 kts | 104° |
| 2026-05-08 11:35 | 43.46720 | -89.27473 | 34923 ft | 515 kts | 104° |
| 2026-05-08 11:35 | 43.45047 | -89.17887 | 34931 ft | 515 kts | 104° |
| 2026-05-08 11:36 | 43.43378 | -89.08358 | 34920 ft | 516 kts | 104° |
| 2026-05-08 11:36 | 43.41682 | -88.98712 | 34913 ft | 515 kts | 105° |
| 2026-05-08 11:37 | 43.39999 | -88.89198 | 34923 ft | 515 kts | 105° |
| 2026-05-08 11:37 | 43.38298 | -88.79629 | 34931 ft | 515 kts | 105° |
| 2026-05-08 11:38 | 43.36586 | -88.70049 | 34926 ft | 516 kts | 105° |
| 2026-05-08 11:38 | 43.34867 | -88.60480 | 34925 ft | 516 kts | 105° |
| 2026-05-08 11:39 | 43.33141 | -88.50920 | 34928 ft | 516 kts | 105° |
| 2026-05-08 11:39 | 43.31408 | -88.41370 | 34934 ft | 515 kts | 105° |
| 2026-05-08 11:40 | 43.29665 | -88.31819 | 34925 ft | 515 kts | 105° |
| 2026-05-08 11:40 | 43.27915 | -88.22276 | 34916 ft | 515 kts | 105° |
| 2026-05-08 11:41 | 43.26160 | -88.12753 | 34917 ft | 515 kts | 105° |
| 2026-05-08 11:41 | 43.24408 | -88.03297 | 34944 ft | 514 kts | 105° |
| 2026-05-08 11:42 | 43.22641 | -87.93803 | 34939 ft | 514 kts | 105° |
| 2026-05-08 11:42 | 43.20864 | -87.84309 | 34939 ft | 513 kts | 105° |
| 2026-05-08 11:43 | 43.19082 | -87.74832 | 34928 ft | 513 kts | 105° |
| 2026-05-08 11:43 | 43.17294 | -87.65374 | 34939 ft | 513 kts | 105° |
| 2026-05-08 11:44 | 43.15499 | -87.55919 | 34939 ft | 513 kts | 105° |
| 2026-05-08 11:44 | 43.13694 | -87.46464 | 34934 ft | 513 kts | 105° |
| 2026-05-08 11:45 | 43.11881 | -87.37012 | 34939 ft | 514 kts | 106° |
| 2026-05-08 11:45 | 43.10057 | -87.27547 | 34944 ft | 514 kts | 105° |
| 2026-05-08 11:46 | 43.08224 | -87.18086 | 34950 ft | 515 kts | 106° |
| 2026-05-08 11:46 | 43.06382 | -87.08618 | 34957 ft | 516 kts | 106° |
| 2026-05-08 11:47 | 43.04542 | -86.99209 | 34951 ft | 516 kts | 106° |
| 2026-05-08 11:47 | 43.02680 | -86.89731 | 34954 ft | 517 kts | 106° |
| 2026-05-08 11:48 | 43.00807 | -86.80245 | 34948 ft | 517 kts | 106° |
| 2026-05-08 11:48 | 42.98924 | -86.70754 | 34949 ft | 518 kts | 106° |
| 2026-05-08 11:49 | 42.97033 | -86.61268 | 34931 ft | 518 kts | 106° |
| 2026-05-08 11:49 | 42.95135 | -86.51792 | 34945 ft | 518 kts | 106° |
| 2026-05-08 11:50 | 42.93228 | -86.42316 | 34943 ft | 518 kts | 106° |
| 2026-05-08 11:50 | 42.91312 | -86.32838 | 34945 ft | 518 kts | 106° |
| 2026-05-08 11:51 | 42.89385 | -86.23352 | 34939 ft | 519 kts | 106° |
| 2026-05-08 11:51 | 42.87449 | -86.13868 | 34955 ft | 519 kts | 106° |
| 2026-05-08 11:52 | 42.85507 | -86.04396 | 34948 ft | 520 kts | 106° |
| 2026-05-08 11:52 | 42.83547 | -85.94878 | 34945 ft | 521 kts | 106° |
| 2026-05-08 11:53 | 42.81582 | -85.85382 | 34943 ft | 521 kts | 106° |
| 2026-05-08 11:53 | 42.79607 | -85.75882 | 34942 ft | 521 kts | 107° |
| 2026-05-08 11:54 | 42.77624 | -85.66388 | 34949 ft | 521 kts | 107° |
| 2026-05-08 11:54 | 42.75632 | -85.56896 | 34943 ft | 521 kts | 107° |
| 2026-05-08 11:55 | 42.73635 | -85.47420 | 34943 ft | 521 kts | 107° |
| 2026-05-08 11:55 | 42.71629 | -85.37947 | 34938 ft | 521 kts | 107° |
| 2026-05-08 11:56 | 42.69617 | -85.28482 | 34937 ft | 521 kts | 107° |
| 2026-05-08 11:56 | 42.67599 | -85.19031 | 34944 ft | 521 kts | 107° |
| 2026-05-08 11:57 | 42.66108 | -85.09413 | 34952 ft | 520 kts | 98° |
| 2026-05-08 11:57 | 42.65137 | -84.99722 | 34944 ft | 521 kts | 96° |
| 2026-05-08 11:58 | 42.64169 | -84.89968 | 34949 ft | 522 kts | 97° |
| 2026-05-08 11:58 | 42.63127 | -84.80212 | 34945 ft | 522 kts | 98° |
| 2026-05-08 11:59 | 42.61490 | -84.65570 | 34957 ft | 523 kts | 98° |
| 2026-05-08 11:59 | 42.60385 | -84.55797 | 34955 ft | 524 kts | 98° |
| 2026-05-08 12:00 | 42.59273 | -84.46009 | 34953 ft | 525 kts | 98° |
| 2026-05-08 12:00 | 42.58156 | -84.36223 | 34959 ft | 525 kts | 98° |
| 2026-05-08 12:01 | 42.57217 | -84.28066 | 34971 ft | 526 kts | 98° |
| 2026-05-08 12:01 | 42.56080 | -84.18254 | 34956 ft | 527 kts | 98° |
| 2026-05-08 12:02 | 42.54933 | -84.08438 | 34954 ft | 527 kts | 98° |
| 2026-05-08 12:02 | 42.53777 | -83.98621 | 34954 ft | 527 kts | 98° |
| 2026-05-08 12:03 | 42.52614 | -83.88811 | 34963 ft | 527 kts | 98° |
| 2026-05-08 12:03 | 42.51440 | -83.78990 | 34949 ft | 528 kts | 98° |
| 2026-05-08 12:04 | 42.50258 | -83.69175 | 34958 ft | 528 kts | 98° |
| 2026-05-08 12:04 | 42.49066 | -83.59353 | 34956 ft | 528 kts | 98° |
| 2026-05-08 12:05 | 42.47875 | -83.49607 | 34958 ft | 528 kts | 98° |
| 2026-05-08 12:05 | 42.46667 | -83.39791 | 34961 ft | 528 kts | 98° |
| 2026-05-08 12:06 | 42.45450 | -83.29978 | 34965 ft | 528 kts | 98° |
| 2026-05-08 12:06 | 42.44224 | -83.20165 | 34969 ft | 529 kts | 98° |
| 2026-05-08 12:07 | 42.42989 | -83.10346 | 34972 ft | 530 kts | 98° |
| 2026-05-08 12:07 | 42.41743 | -83.00509 | 34966 ft | 530 kts | 98° |
| 2026-05-08 12:08 | 42.40487 | -82.90671 | 34963 ft | 531 kts | 99° |
| 2026-05-08 12:08 | 42.39222 | -82.80818 | 34961 ft | 532 kts | 99° |
| 2026-05-08 12:09 | 42.37956 | -82.70960 | 34937 ft | 532 kts | 97° |
| 2026-05-08 12:09 | 42.37341 | -82.61019 | 34962 ft | 531 kts | 90° |
| 2026-05-08 12:10 | 42.37062 | -82.51042 | 34976 ft | 531 kts | 90° |
| 2026-05-08 12:10 | 42.36742 | -82.41043 | 34953 ft | 533 kts | 90° |
| 2026-05-08 12:11 | 42.36347 | -82.31026 | 34957 ft | 534 kts | 91° |
| 2026-05-08 12:11 | 42.35921 | -82.21006 | 34951 ft | 534 kts | 91° |
| 2026-05-08 12:12 | 42.35492 | -82.11059 | 34952 ft | 533 kts | 91° |
| 2026-05-08 12:12 | 42.35057 | -82.01051 | 34951 ft | 533 kts | 91° |
| 2026-05-08 12:13 | 42.34615 | -81.91054 | 34951 ft | 532 kts | 91° |
| 2026-05-08 12:13 | 42.34164 | -81.81065 | 34953 ft | 532 kts | 91° |
| 2026-05-08 12:14 | 42.33705 | -81.71092 | 34955 ft | 531 kts | 91° |
| 2026-05-08 12:14 | 42.33240 | -81.61130 | 34972 ft | 531 kts | 91° |
| 2026-05-08 12:15 | 42.32768 | -81.51175 | 34958 ft | 531 kts | 91° |
| 2026-05-08 12:15 | 42.32294 | -81.41213 | 34965 ft | 531 kts | 91° |
| 2026-05-08 12:16 | 42.31813 | -81.31263 | 34967 ft | 531 kts | 91° |
| 2026-05-08 12:16 | 42.31323 | -81.21311 | 34974 ft | 531 kts | 91° |
| 2026-05-08 12:17 | 42.30822 | -81.11334 | 34971 ft | 532 kts | 91° |
| 2026-05-08 12:17 | 42.30313 | -81.01359 | 34972 ft | 532 kts | 92° |
| 2026-05-08 12:18 | 42.29798 | -80.91423 | 35027 ft | 537 kts | 92° |
| 2026-05-08 12:18 | 42.29533 | -80.86373 | 35150 ft | 539 kts | 92° |
| 2026-05-08 12:18 | 42.29265 | -80.81320 | 35367 ft | 539 kts | 92° |
| 2026-05-08 12:19 | 42.28996 | -80.76285 | 35646 ft | 537 kts | 92° |
| 2026-05-08 12:19 | 42.28725 | -80.71268 | 35900 ft | 535 kts | 92° |
| 2026-05-08 12:19 | 42.28450 | -80.66258 | 36143 ft | 534 kts | 92° |
| 2026-05-08 12:19 | 42.28172 | -80.61273 | 36415 ft | 532 kts | 92° |
| 2026-05-08 12:20 | 42.27893 | -80.56305 | 36687 ft | 530 kts | 92° |
| 2026-05-08 12:20 | 42.27614 | -80.51352 | 36910 ft | 529 kts | 93° |
| 2026-05-08 12:20 | 42.27048 | -80.41407 | 36952 ft | 533 kts | 93° |
| 2026-05-08 12:21 | 42.26472 | -80.31435 | 36945 ft | 532 kts | 93° |
| 2026-05-08 12:21 | 42.25890 | -80.21509 | 36951 ft | 529 kts | 93° |
| 2026-05-08 12:22 | 42.25300 | -80.11609 | 36955 ft | 528 kts | 93° |
| 2026-05-08 12:22 | 42.24705 | -80.01741 | 36954 ft | 527 kts | 93° |
| 2026-05-08 12:23 | 42.24101 | -79.91893 | 36953 ft | 526 kts | 93° |
| 2026-05-08 12:23 | 42.23494 | -79.82114 | 36963 ft | 526 kts | 93° |
| 2026-05-08 12:24 | 42.22872 | -79.72270 | 36967 ft | 528 kts | 94° |
| 2026-05-08 12:24 | 42.21460 | -79.62548 | 36977 ft | 529 kts | 105° |
| 2026-05-08 12:25 | 42.19539 | -79.52960 | 36972 ft | 530 kts | 106° |
| 2026-05-08 12:25 | 42.17622 | -79.43342 | 36964 ft | 531 kts | 105° |
| 2026-05-08 12:26 | 42.15767 | -79.33691 | 36972 ft | 533 kts | 105° |
| 2026-05-08 12:26 | 42.13930 | -79.24010 | 36969 ft | 534 kts | 105° |
| 2026-05-08 12:27 | 42.12081 | -79.14312 | 36964 ft | 534 kts | 105° |
| 2026-05-08 12:27 | 42.10219 | -79.04623 | 36947 ft | 535 kts | 105° |
| 2026-05-08 12:28 | 42.08346 | -78.94937 | 36949 ft | 535 kts | 105° |
| 2026-05-08 12:28 | 42.06466 | -78.85265 | 36968 ft | 533 kts | 105° |
| 2026-05-08 12:29 | 42.04580 | -78.75609 | 36968 ft | 533 kts | 105° |
| 2026-05-08 12:29 | 42.02699 | -78.66025 | 36958 ft | 533 kts | 105° |
| 2026-05-08 12:30 | 42.00798 | -78.56382 | 36957 ft | 533 kts | 105° |
| 2026-05-08 12:30 | 41.98887 | -78.46737 | 36956 ft | 533 kts | 105° |
| 2026-05-08 12:31 | 41.96971 | -78.37114 | 36957 ft | 533 kts | 105° |
| 2026-05-08 12:31 | 41.95044 | -78.27481 | 36956 ft | 533 kts | 106° |
| 2026-05-08 12:32 | 41.93111 | -78.17861 | 36955 ft | 533 kts | 106° |
| 2026-05-08 12:32 | 41.91168 | -78.08244 | 36952 ft | 533 kts | 106° |
| 2026-05-08 12:33 | 41.89220 | -77.98637 | 36957 ft | 533 kts | 106° |
| 2026-05-08 12:33 | 41.87262 | -77.89026 | 36953 ft | 534 kts | 106° |
| 2026-05-08 12:34 | 41.85106 | -77.79506 | 36965 ft | 533 kts | 111° |
| 2026-05-08 12:34 | 41.82581 | -77.70162 | 36961 ft | 533 kts | 112° |
| 2026-05-08 12:35 | 41.80069 | -77.60808 | 36951 ft | 533 kts | 111° |
| 2026-05-08 12:35 | 41.77602 | -77.51438 | 36971 ft | 533 kts | 111° |
| 2026-05-08 12:36 | 41.75122 | -77.42148 | 36969 ft | 533 kts | 111° |
| 2026-05-08 12:36 | 41.72612 | -77.32803 | 36962 ft | 533 kts | 111° |
| 2026-05-08 12:37 | 41.70101 | -77.23464 | 36966 ft | 533 kts | 111° |
| 2026-05-08 12:37 | 41.67585 | -77.14136 | 36949 ft | 533 kts | 112° |
| 2026-05-08 12:38 | 41.65060 | -77.04812 | 36968 ft | 534 kts | 112° |
| 2026-05-08 12:38 | 41.62523 | -76.95472 | 36976 ft | 535 kts | 112° |
| 2026-05-08 12:39 | 41.59974 | -76.86116 | 36978 ft | 536 kts | 112° |
| 2026-05-08 12:39 | 41.57410 | -76.76738 | 36966 ft | 538 kts | 112° |
| 2026-05-08 12:40 | 41.54831 | -76.67338 | 36982 ft | 539 kts | 112° |
| 2026-05-08 12:40 | 41.52240 | -76.57932 | 36977 ft | 541 kts | 112° |
| 2026-05-08 12:41 | 41.49654 | -76.48569 | 36975 ft | 542 kts | 112° |
| 2026-05-08 12:41 | 41.47045 | -76.39144 | 36975 ft | 542 kts | 112° |
| 2026-05-08 12:42 | 41.44440 | -76.29756 | 36948 ft | 530 kts | 112° |
| 2026-05-08 12:42 | 41.43180 | -76.25222 | 36901 ft | 516 kts | 113° |
| 2026-05-08 12:42 | 41.41935 | -76.20756 | 36493 ft | 513 kts | 113° |
| 2026-05-08 12:43 | 41.40678 | -76.16268 | 35673 ft | 522 kts | 113° |
| 2026-05-08 12:43 | 41.39391 | -76.11686 | 34794 ft | 532 kts | 113° |
| 2026-05-08 12:43 | 41.38078 | -76.07021 | 33957 ft | 541 kts | 113° |
| 2026-05-08 12:43 | 41.36751 | -76.02305 | 33042 ft | 548 kts | 113° |
| 2026-05-08 12:44 | 41.35411 | -75.97540 | 32290 ft | 551 kts | 113° |
| 2026-05-08 12:44 | 41.34071 | -75.92782 | 31629 ft | 545 kts | 113° |
| 2026-05-08 12:44 | 41.32761 | -75.88137 | 30732 ft | 543 kts | 113° |
| 2026-05-08 12:44 | 41.31427 | -75.83425 | 29400 ft | 547 kts | 114° |
| 2026-05-08 12:45 | 41.30086 | -75.78700 | 28580 ft | 541 kts | 113° |
| 2026-05-08 12:45 | 41.28770 | -75.74062 | 27937 ft | 530 kts | 114° |
| 2026-05-08 12:45 | 41.27480 | -75.69525 | 27441 ft | 523 kts | 114° |
| 2026-05-08 12:45 | 41.26127 | -75.65058 | 26887 ft | 519 kts | 116° |
| 2026-05-08 12:46 | 41.24675 | -75.60695 | 26359 ft | 514 kts | 117° |
| 2026-05-08 12:46 | 41.23182 | -75.56375 | 26025 ft | 515 kts | 118° |
| 2026-05-08 12:46 | 41.21695 | -75.52076 | 25972 ft | 509 kts | 117° |
| 2026-05-08 12:46 | 41.20247 | -75.47842 | 25658 ft | 500 kts | 117° |
| 2026-05-08 12:47 | 41.18822 | -75.43629 | 25012 ft | 501 kts | 117° |
| 2026-05-08 12:47 | 41.17396 | -75.39392 | 24293 ft | 504 kts | 117° |
| 2026-05-08 12:47 | 41.15970 | -75.35154 | 23780 ft | 500 kts | 116° |
| 2026-05-08 12:47 | 41.14560 | -75.30971 | 23348 ft | 493 kts | 116° |
| 2026-05-08 12:48 | 41.13186 | -75.26899 | 22861 ft | 487 kts | 116° |
| 2026-05-08 12:48 | 41.11807 | -75.22817 | 22329 ft | 482 kts | 116° |
| 2026-05-08 12:48 | 41.10439 | -75.18778 | 21788 ft | 478 kts | 117° |
| 2026-05-08 12:48 | 41.09082 | -75.14772 | 21249 ft | 475 kts | 117° |
| 2026-05-08 12:49 | 41.07733 | -75.10797 | 20735 ft | 471 kts | 117° |
| 2026-05-08 12:49 | 41.06394 | -75.06859 | 20196 ft | 467 kts | 117° |
| 2026-05-08 12:49 | 41.05059 | -75.02939 | 19628 ft | 466 kts | 117° |
| 2026-05-08 12:49 | 41.03735 | -74.99057 | 19195 ft | 460 kts | 117° |
| 2026-05-08 12:50 | 41.02425 | -74.95215 | 18763 ft | 455 kts | 117° |
| 2026-05-08 12:50 | 41.01128 | -74.91420 | 18349 ft | 449 kts | 117° |
| 2026-05-08 12:50 | 40.99858 | -74.87669 | 17883 ft | 445 kts | 114° |
| 2026-05-08 12:50 | 40.99019 | -74.83744 | 17446 ft | 442 kts | 99° |
| 2026-05-08 12:51 | 40.98565 | -74.79753 | 17061 ft | 436 kts | 97° |
| 2026-05-08 12:51 | 40.97898 | -74.73199 | 16374 ft | 429 kts | 97° |
| 2026-05-08 12:51 | 40.97488 | -74.69295 | 15982 ft | 427 kts | 97° |
| 2026-05-08 12:52 | 40.97060 | -74.65419 | 15596 ft | 424 kts | 98° |
| 2026-05-08 12:52 | 40.96176 | -74.57771 | 14828 ft | 418 kts | 98° |
| 2026-05-08 12:52 | 40.95727 | -74.53978 | 14442 ft | 417 kts | 98° |
| 2026-05-08 12:53 | 40.95275 | -74.50196 | 14059 ft | 415 kts | 98° |
| 2026-05-08 12:53 | 40.94826 | -74.46438 | 13673 ft | 412 kts | 98° |
| 2026-05-08 12:53 | 40.94380 | -74.42707 | 13262 ft | 409 kts | 98° |
| 2026-05-08 12:53 | 40.93936 | -74.39005 | 12864 ft | 406 kts | 98° |
| 2026-05-08 12:54 | 40.93494 | -74.35329 | 12498 ft | 403 kts | 98° |
| 2026-05-08 12:54 | 40.93056 | -74.31692 | 12119 ft | 399 kts | 97° |
| 2026-05-08 12:54 | 40.92620 | -74.28091 | 11737 ft | 393 kts | 97° |
| 2026-05-08 12:54 | 40.92191 | -74.24547 | 11383 ft | 387 kts | 97° |
| 2026-05-08 12:55 | 40.91767 | -74.21053 | 11030 ft | 382 kts | 97° |
| 2026-05-08 12:55 | 40.91349 | -74.17623 | 10673 ft | 372 kts | 97° |
| 2026-05-08 12:55 | 40.90948 | -74.14347 | 10338 ft | 359 kts | 97° |
| 2026-05-08 12:55 | 40.90303 | -74.11221 | 9982 ft | 350 kts | 116° |
| 2026-05-08 12:56 | 40.89046 | -74.08583 | 9957 ft | 329 kts | 124° |
| 2026-05-08 12:56 | 40.87816 | -74.06136 | 9837 ft | 313 kts | 124° |
| 2026-05-08 12:56 | 40.86604 | -74.03701 | 9178 ft | 316 kts | 123° |
| 2026-05-08 12:56 | 40.85412 | -74.01287 | 8804 ft | 310 kts | 123° |
| 2026-05-08 12:57 | 40.84251 | -73.98924 | 8527 ft | 303 kts | 123° |
| 2026-05-08 12:57 | 40.83119 | -73.96616 | 8224 ft | 296 kts | 123° |
| 2026-05-08 12:57 | 40.82017 | -73.94366 | 7957 ft | 288 kts | 123° |
| 2026-05-08 12:57 | 40.80944 | -73.92177 | 7686 ft | 281 kts | 123° |
| 2026-05-08 12:58 | 40.79896 | -73.90039 | 7431 ft | 274 kts | 123° |
| 2026-05-08 12:58 | 40.78871 | -73.87951 | 7186 ft | 268 kts | 123° |
| 2026-05-08 12:58 | 40.78016 | -73.85812 | 6918 ft | 260 kts | 102° |
| 2026-05-08 12:58 | 40.77982 | -73.83540 | 6759 ft | 240 kts | 69° |
| 2026-05-08 12:59 | 40.78759 | -73.81767 | 6608 ft | 211 kts | 33° |
| 2026-05-08 12:59 | 40.79994 | -73.81027 | 6574 ft | 187 kts | 356° |
| 2026-05-08 12:59 | 40.81198 | -73.81466 | 6600 ft | 181 kts | 320° |
| 2026-05-08 12:59 | 40.81916 | -73.82838 | 6358 ft | 190 kts | 285° |
| 2026-05-08 13:00 | 40.81800 | -73.84572 | 6099 ft | 197 kts | 249° |
| 2026-05-08 13:00 | 40.80857 | -73.85900 | 5816 ft | 207 kts | 213° |
| 2026-05-08 13:00 | 40.79433 | -73.86250 | 5540 ft | 216 kts | 176° |
| 2026-05-08 13:00 | 40.78060 | -73.85432 | 5297 ft | 223 kts | 139° |
| 2026-05-08 13:01 | 40.77008 | -73.83928 | 5082 ft | 224 kts | 132° |
| 2026-05-08 13:01 | 40.75962 | -73.82379 | 4827 ft | 227 kts | 132° |
| 2026-05-08 13:01 | 40.74907 | -73.80824 | 4567 ft | 227 kts | 132° |
| 2026-05-08 13:01 | 40.73864 | -73.79291 | 4284 ft | 222 kts | 132° |
| 2026-05-08 13:02 | 40.72841 | -73.77788 | 4057 ft | 219 kts | 132° |
| 2026-05-08 13:02 | 40.71838 | -73.76320 | 4006 ft | 218 kts | 132° |
| 2026-05-08 13:02 | 40.70821 | -73.74834 | 4001 ft | 218 kts | 132° |
| 2026-05-08 13:02 | 40.69808 | -73.73351 | 3996 ft | 218 kts | 132° |
| 2026-05-08 13:03 | 40.68782 | -73.71845 | 3998 ft | 218 kts | 132° |
| 2026-05-08 13:03 | 40.67771 | -73.70359 | 3997 ft | 218 kts | 132° |
| 2026-05-08 13:03 | 40.66756 | -73.68869 | 4001 ft | 219 kts | 132° |
| 2026-05-08 13:03 | 40.65734 | -73.67374 | 4003 ft | 220 kts | 132° |
| 2026-05-08 13:04 | 40.64718 | -73.65889 | 3993 ft | 222 kts | 132° |
| 2026-05-08 13:04 | 40.63694 | -73.64387 | 3986 ft | 217 kts | 132° |
| 2026-05-08 13:04 | 40.62703 | -73.62917 | 3981 ft | 211 kts | 132° |
| 2026-05-08 13:04 | 40.61756 | -73.61505 | 3972 ft | 201 kts | 132° |
| 2026-05-08 13:05 | 40.60836 | -73.60131 | 3995 ft | 200 kts | 132° |
| 2026-05-08 13:05 | 40.59915 | -73.58751 | 3994 ft | 201 kts | 132° |
| 2026-05-08 13:05 | 40.58993 | -73.57365 | 4011 ft | 203 kts | 132° |
| 2026-05-08 13:05 | 40.58053 | -73.55964 | 4017 ft | 205 kts | 132° |
| 2026-05-08 13:06 | 40.57105 | -73.54560 | 3975 ft | 203 kts | 132° |
| 2026-05-08 13:06 | 40.56255 | -73.53105 | 3982 ft | 199 kts | 122° |
| 2026-05-08 13:06 | 40.55531 | -73.51587 | 3998 ft | 199 kts | 121° |
| 2026-05-08 13:06 | 40.54801 | -73.50027 | 4007 ft | 201 kts | 121° |
| 2026-05-08 13:07 | 40.54064 | -73.48446 | 4004 ft | 204 kts | 121° |
| 2026-05-08 13:07 | 40.53323 | -73.46854 | 4001 ft | 205 kts | 121° |
| 2026-05-08 13:07 | 40.52579 | -73.45255 | 4003 ft | 205 kts | 121° |
| 2026-05-08 13:07 | 40.51833 | -73.43653 | 3997 ft | 205 kts | 121° |
| 2026-05-08 13:08 | 40.51088 | -73.42050 | 3990 ft | 205 kts | 121° |
| 2026-05-08 13:08 | 40.50348 | -73.40456 | 3974 ft | 204 kts | 121° |
| 2026-05-08 13:08 | 40.49613 | -73.38873 | 3983 ft | 202 kts | 121° |
| 2026-05-08 13:08 | 40.48848 | -73.37337 | 3976 ft | 200 kts | 130° |
| 2026-05-08 13:09 | 40.47941 | -73.35976 | 3990 ft | 198 kts | 132° |
| 2026-05-08 13:09 | 40.47032 | -73.34625 | 3985 ft | 197 kts | 132° |
| 2026-05-08 13:09 | 40.46066 | -73.33363 | 3979 ft | 195 kts | 147° |
| 2026-05-08 13:09 | 40.44891 | -73.32509 | 3974 ft | 194 kts | 171° |
| 2026-05-08 13:10 | 40.43593 | -73.32640 | 4010 ft | 188 kts | 211° |
| 2026-05-08 13:10 | 40.42704 | -73.33766 | 4014 ft | 175 kts | 248° |
| 2026-05-08 13:10 | 40.42337 | -73.35271 | 4003 ft | 173 kts | 263° |
| 2026-05-08 13:10 | 40.42410 | -73.36813 | 4001 ft | 169 kts | 289° |
| 2026-05-08 13:11 | 40.42903 | -73.38205 | 3981 ft | 170 kts | 310° |
| 2026-05-08 13:11 | 40.43706 | -73.39333 | 3995 ft | 170 kts | 312° |
| 2026-05-08 13:11 | 40.44508 | -73.40480 | 4007 ft | 170 kts | 311° |
| 2026-05-08 13:11 | 40.45304 | -73.41637 | 4002 ft | 171 kts | 311° |
| 2026-05-08 13:12 | 40.46097 | -73.42803 | 3993 ft | 171 kts | 310° |
| 2026-05-08 13:12 | 40.46885 | -73.43973 | 3990 ft | 171 kts | 310° |
| 2026-05-08 13:12 | 40.47655 | -73.45124 | 3987 ft | 169 kts | 310° |
| 2026-05-08 13:12 | 40.48427 | -73.46286 | 3978 ft | 168 kts | 310° |
| 2026-05-08 13:13 | 40.49192 | -73.47442 | 3994 ft | 167 kts | 310° |
| 2026-05-08 13:13 | 40.49951 | -73.48593 | 3990 ft | 166 kts | 310° |
| 2026-05-08 13:13 | 40.50704 | -73.49738 | 3991 ft | 165 kts | 310° |
| 2026-05-08 13:13 | 40.51454 | -73.50882 | 3990 ft | 165 kts | 310° |
| 2026-05-08 13:14 | 40.52229 | -73.52066 | 3705 ft | 173 kts | 310° |
| 2026-05-08 13:14 | 40.53005 | -73.53254 | 3545 ft | 169 kts | 310° |
| 2026-05-08 13:14 | 40.53760 | -73.54410 | 3414 ft | 165 kts | 310° |
| 2026-05-08 13:14 | 40.54507 | -73.55557 | 3296 ft | 166 kts | 310° |
| 2026-05-08 13:15 | 40.55260 | -73.56711 | 3178 ft | 167 kts | 310° |
| 2026-05-08 13:15 | 40.56017 | -73.57873 | 3047 ft | 167 kts | 310° |
| 2026-05-08 13:15 | 40.56741 | -73.59078 | 3003 ft | 170 kts | 304° |
| 2026-05-08 13:15 | 40.57378 | -73.60410 | 2804 ft | 173 kts | 302° |
| 2026-05-08 13:16 | 40.57986 | -73.61752 | 2569 ft | 168 kts | 301° |
| 2026-05-08 13:16 | 40.58567 | -73.63045 | 2360 ft | 160 kts | 302° |
| 2026-05-08 13:16 | 40.59123 | -73.64276 | 2161 ft | 151 kts | 301° |
| 2026-05-08 13:16 | 40.59640 | -73.65427 | 1913 ft | 142 kts | 300° |
| 2026-05-08 13:17 | 40.60127 | -73.66513 | 1739 ft | 140 kts | 301° |
| 2026-05-08 13:17 | 40.60612 | -73.67585 | 1517 ft | 135 kts | 301° |
| 2026-05-08 13:17 | 40.61095 | -73.68656 | 1364 ft | 138 kts | 300° |
| 2026-05-08 13:17 | 40.61582 | -73.69740 | 1175 ft | 138 kts | 300° |
| 2026-05-08 13:18 | 40.62074 | -73.70830 | 985 ft | 139 kts | 300° |
| 2026-05-08 13:18 | 40.62561 | -73.71911 | 791 ft | 137 kts | 300° |
| 2026-05-08 13:18 | 40.63041 | -73.72974 | 613 ft | 134 kts | 301° |
| 2026-05-08 13:18 | 40.63514 | -73.74024 | 424 ft | 134 kts | 301° |
| 2026-05-08 13:19 | 40.63998 | -73.75099 | 254 ft | 139 kts | 301° |
| 2026-05-08 13:19 | 40.64494 | -73.76195 | 61 ft | 138 kts | 302° |
| 2026-05-08 13:19 | 40.64952 | -73.77202 | 21 ft | 109 kts | 301° |
| 2026-05-08 13:19 | 40.65225 | -73.77809 | 19 ft | 48 kts | 301° |
| 2026-05-08 13:20 | 40.65302 | -73.77983 | 19 ft | 11 kts | 300° |
| 2026-05-08 13:20 | 40.65342 | -73.78074 | 20 ft | 15 kts | 299° |
| 2026-05-08 13:20 | 40.65403 | -73.78215 | 20 ft | 18 kts | 301° |
| 2026-05-08 13:20 | 40.65402 | -73.78362 | 21 ft | 13 kts | 231° |
| 2026-05-08 13:21 | 40.65340 | -73.78419 | 20 ft | 11 kts | 204° |
| 2026-05-08 13:21 | 40.65274 | -73.78396 | 19 ft | 10 kts | 125° |
| 2026-05-08 13:21 | 40.65238 | -73.78314 | 19 ft | 11 kts | 120° |
| 2026-05-08 13:21 | 40.65199 | -73.78224 | 19 ft | 12 kts | 120° |
| 2026-05-08 13:22 | 40.65153 | -73.78114 | 19 ft | 15 kts | 118° |
| 2026-05-08 13:22 | 40.65101 | -73.77996 | 19 ft | 15 kts | 122° |
| 2026-05-08 13:22 | 40.65049 | -73.77885 | 19 ft | 14 kts | 121° |
| 2026-05-08 13:22 | 40.64999 | -73.77778 | 19 ft | 13 kts | 123° |
| 2026-05-08 13:23 | 40.64950 | -73.77678 | 19 ft | 13 kts | 121° |
| 2026-05-08 13:23 | 40.64904 | -73.77570 | 19 ft | 13 kts | 119° |
| 2026-05-08 13:23 | 40.64857 | -73.77467 | 19 ft | 13 kts | 120° |
| 2026-05-08 13:23 | 40.64806 | -73.77353 | 19 ft | 16 kts | 122° |
| 2026-05-08 13:24 | 40.64749 | -73.77232 | 19 ft | 15 kts | 121° |
| 2026-05-08 13:24 | 40.64684 | -73.77117 | 19 ft | 16 kts | 140° |
| 2026-05-08 13:24 | 40.64583 | -73.77085 | 19 ft | 15 kts | 179° |
| 2026-05-08 13:24 | 40.64477 | -73.77090 | 19 ft | 16 kts | 186° |
| 2026-05-08 13:25 | 40.64375 | -73.77144 | 20 ft | 17 kts | 211° |
| 2026-05-08 13:25 | 40.64275 | -73.77221 | 20 ft | 16 kts | 210° |
| 2026-05-08 13:25 | 40.64180 | -73.77298 | 22 ft | 16 kts | 212° |
| 2026-05-08 13:25 | 40.64088 | -73.77368 | 21 ft | 15 kts | 208° |
| 2026-05-08 13:26 | 40.63999 | -73.77436 | 19 ft | 14 kts | 212° |
| 2026-05-08 13:26 | 40.63916 | -73.77506 | 19 ft | 14 kts | 211° |
| 2026-05-08 13:26 | 40.63835 | -73.77570 | 19 ft | 13 kts | 211° |
| 2026-05-08 13:26 | 40.63756 | -73.77631 | 20 ft | 13 kts | 210° |
| 2026-05-08 13:27 | 40.63679 | -73.77690 | 19 ft | 13 kts | 210° |
| 2026-05-08 13:27 | 40.63603 | -73.77749 | 19 ft | 13 kts | 211° |
| 2026-05-08 13:27 | 40.63529 | -73.77807 | 19 ft | 12 kts | 211° |
| 2026-05-08 13:27 | 40.63458 | -73.77865 | 21 ft | 12 kts | 216° |
| 2026-05-08 13:28 | 40.63409 | -73.77958 | 20 ft | 13 kts | 255° |
| 2026-05-08 13:28 | 40.63422 | -73.78069 | 20 ft | 12 kts | 298° |
| 2026-05-08 13:28 | 40.63465 | -73.78167 | 20 ft | 12 kts | 301° |
| 2026-05-08 13:28 | 40.63515 | -73.78254 | 20 ft | 12 kts | 327° |
| 2026-05-08 13:29 | 40.63595 | -73.78257 | 20 ft | 12 kts | 4° |
| 2026-05-08 13:29 | 40.63674 | -73.78263 | 20 ft | 11 kts | 353° |
| 2026-05-08 13:29 | 40.63750 | -73.78277 | 20 ft | 11 kts | 352° |
| 2026-05-08 13:29 | 40.63824 | -73.78291 | 20 ft | 11 kts | 352° |
| 2026-05-08 13:30 | 40.63895 | -73.78306 | 20 ft | 10 kts | 343° |
| 2026-05-08 13:30 | 40.63958 | -73.78344 | 19 ft | 10 kts | 332° |
| 2026-05-08 13:30 | 40.64017 | -73.78388 | 19 ft | 10 kts | 330° |
| 2026-05-08 13:30 | 40.64074 | -73.78431 | 19 ft | 9 kts | 330° |
| 2026-05-08 13:31 | 40.64131 | -73.78467 | 19 ft | 9 kts | 342° |
| 2026-05-08 13:31 | 40.64190 | -73.78465 | 19 ft | 9 kts | 38° |
| 2026-05-08 13:31 | 40.64214 | -73.78411 | 19 ft | 0 kts | 61° |